sensor_id;sensor_type;location;lat;lon;timestamp;temperature;humidity
16321;DHT22;8269;50.990;4.494;2024-01-15T00:00:00;1.30;99.90
16321;DHT22;8269;50.990;4.494;2024-01-15T00:02:27;1.30;99.90
16321;DHT22;8269;50.990;4.494;2024-01-15T00:04:54;1.30;99.90
16321;DHT22;8269;50.990;4.494;2024-01-15T00:07:28;1.30;99.90
16321;DHT22;8269;50.990;4.494;2024-01-15T00:09:56;1.40;99.90
16321;DHT22;8269;50.990;4.494;2024-01-15T00:12:24;1.30;99.90
16321;DHT22;8269;50.990;4.494;2024-01-15T00:14:50;1.30;99.90
16321;DHT22;8269;50.990;4.494;2024-01-15T00:17:49;1.40;99.90
16321;DHT22;8269;50.990;4.494;2024-01-15T00:20:21;1.40;99.90
16321;DHT22;8269;50.990;4.494;2024-01-15T00:22:51;1.40;99.90
16321;DHT22;8269;50.990;4.494;2024-01-15T00:25:45;1.40;99.90
16321;DHT22;8269;50.990;4.494;2024-01-15T00:28:20;1.50;99.90
16321;DHT22;8269;50.990;4.494;2024-01-15T00:30:58;1.50;99.90
16321;DHT22;8269;50.990;4.494;2024-01-15T00:34:00;1.50;99.90
16321;DHT22;8269;50.990;4.494;2024-01-15T00:36:29;1.60;99.90
16321;DHT22;8269;50.990;4.494;2024-01-15T00:38:55;1.50;99.90
16321;DHT22;8269;50.990;4.494;2024-01-15T00:41:21;1.60;99.90
16321;DHT22;8269;50.990;4.494;2024-01-15T00:43:48;1.60;99.90
16321;DHT22;8269;50.990;4.494;2024-01-15T00:46:15;1.50;99.90
16321;DHT22;8269;50.990;4.494;2024-01-15T00:48:44;1.50;99.90
16321;DHT22;8269;50.990;4.494;2024-01-15T00:51:13;1.40;99.90
16321;DHT22;8269;50.990;4.494;2024-01-15T00:53:41;1.50;99.90
16321;DHT22;8269;50.990;4.494;2024-01-15T00:56:10;1.30;99.90
16321;DHT22;8269;50.990;4.494;2024-01-15T00:58:38;1.30;99.90
16321;DHT22;8269;50.990;4.494;2024-01-15T01:01:16;1.30;99.90
16321;DHT22;8269;50.990;4.494;2024-01-15T01:03:45;1.20;99.90
16321;DHT22;8269;50.990;4.494;2024-01-15T01:06:21;1.20;99.90
16321;DHT22;8269;50.990;4.494;2024-01-15T01:08:47;1.20;99.90
16321;DHT22;8269;50.990;4.494;2024-01-15T01:11:40;1.10;99.90
16321;DHT22;8269;50.990;4.494;2024-01-15T01:14:30;1.00;99.90
16321;DHT22;8269;50.990;4.494;2024-01-15T01:17:07;1.00;99.90
16321;DHT22;8269;50.990;4.494;2024-01-15T01:20:05;1.00;99.90
16321;DHT22;8269;50.990;4.494;2024-01-15T01:22:49;1.10;99.90
16321;DHT22;8269;50.990;4.494;2024-01-15T01:25:27;1.10;99.90
16321;DHT22;8269;50.990;4.494;2024-01-15T01:28:00;1.10;99.90
16321;DHT22;8269;50.990;4.494;2024-01-15T01:30:26;1.10;99.90
16321;DHT22;8269;50.990;4.494;2024-01-15T01:32:55;1.10;99.90
16321;DHT22;8269;50.990;4.494;2024-01-15T01:35:32;1.10;99.90
16321;DHT22;8269;50.990;4.494;2024-01-15T01:38:01;1.10;99.90
16321;DHT22;8269;50.990;4.494;2024-01-15T01:40:42;1.10;99.90
16321;DHT22;8269;50.990;4.494;2024-01-15T01:43:15;1.00;99.90
16321;DHT22;8269;50.990;4.494;2024-01-15T01:45:47;1.00;99.90
16321;DHT22;8269;50.990;4.494;2024-01-15T01:48:44;1.00;99.90
16321;DHT22;8269;50.990;4.494;2024-01-15T01:51:21;1.00;99.90
16321;DHT22;8269;50.990;4.494;2024-01-15T01:56:23;1.00;99.90
16321;DHT22;8269;50.990;4.494;2024-01-15T01:58:49;1.00;99.90
16321;DHT22;8269;50.990;4.494;2024-01-15T02:01:16;1.00;99.90
16321;DHT22;8269;50.990;4.494;2024-01-15T02:03:43;1.00;99.90
16321;DHT22;8269;50.990;4.494;2024-01-15T02:06:09;1.00;99.90
16321;DHT22;8269;50.990;4.494;2024-01-15T02:08:35;1.00;99.90
16321;DHT22;8269;50.990;4.494;2024-01-15T02:11:01;1.10;99.90
16321;DHT22;8269;50.990;4.494;2024-01-15T02:13:27;1.10;99.90
16321;DHT22;8269;50.990;4.494;2024-01-15T02:15:52;1.20;99.90
16321;DHT22;8269;50.990;4.494;2024-01-15T02:18:18;1.30;99.90
16321;DHT22;8269;50.990;4.494;2024-01-15T02:20:43;1.30;99.90
16321;DHT22;8269;50.990;4.494;2024-01-15T02:23:15;1.30;99.90
16321;DHT22;8269;50.990;4.494;2024-01-15T02:25:43;1.30;99.90
16321;DHT22;8269;50.990;4.494;2024-01-15T02:28:11;1.30;99.90
16321;DHT22;8269;50.990;4.494;2024-01-15T02:30:41;1.20;99.90
16321;DHT22;8269;50.990;4.494;2024-01-15T02:33:08;1.20;99.90
16321;DHT22;8269;50.990;4.494;2024-01-15T02:35:34;1.20;99.90
16321;DHT22;8269;50.990;4.494;2024-01-15T02:38:02;1.20;99.90
16321;DHT22;8269;50.990;4.494;2024-01-15T02:40:28;1.20;99.90
16321;DHT22;8269;50.990;4.494;2024-01-15T02:42:54;1.20;99.90
16321;DHT22;8269;50.990;4.494;2024-01-15T02:45:19;1.20;99.90
16321;DHT22;8269;50.990;4.494;2024-01-15T02:47:45;1.20;99.90
16321;DHT22;8269;50.990;4.494;2024-01-15T02:50:11;1.20;99.90
16321;DHT22;8269;50.990;4.494;2024-01-15T02:52:37;1.20;99.90
16321;DHT22;8269;50.990;4.494;2024-01-15T02:55:02;1.20;99.90
16321;DHT22;8269;50.990;4.494;2024-01-15T02:57:28;1.20;99.90
16321;DHT22;8269;50.990;4.494;2024-01-15T02:59:54;1.20;99.90
16321;DHT22;8269;50.990;4.494;2024-01-15T03:02:19;1.20;99.90
16321;DHT22;8269;50.990;4.494;2024-01-15T03:04:45;1.10;99.90
16321;DHT22;8269;50.990;4.494;2024-01-15T03:07:11;1.10;99.90
16321;DHT22;8269;50.990;4.494;2024-01-15T03:09:37;1.20;99.90
16321;DHT22;8269;50.990;4.494;2024-01-15T03:12:03;1.20;99.90
16321;DHT22;8269;50.990;4.494;2024-01-15T03:14:29;1.20;99.90
16321;DHT22;8269;50.990;4.494;2024-01-15T03:16:54;1.20;99.90
16321;DHT22;8269;50.990;4.494;2024-01-15T03:19:20;1.20;99.90
16321;DHT22;8269;50.990;4.494;2024-01-15T03:21:46;1.20;99.90
16321;DHT22;8269;50.990;4.494;2024-01-15T03:24:12;1.20;99.90
16321;DHT22;8269;50.990;4.494;2024-01-15T03:26:37;1.20;99.90
16321;DHT22;8269;50.990;4.494;2024-01-15T03:29:03;1.20;99.90
16321;DHT22;8269;50.990;4.494;2024-01-15T03:31:28;1.20;99.90
16321;DHT22;8269;50.990;4.494;2024-01-15T03:33:54;1.20;99.90
16321;DHT22;8269;50.990;4.494;2024-01-15T03:36:20;1.20;99.90
16321;DHT22;8269;50.990;4.494;2024-01-15T03:38:45;1.20;99.90
16321;DHT22;8269;50.990;4.494;2024-01-15T03:41:11;1.20;99.90
16321;DHT22;8269;50.990;4.494;2024-01-15T03:43:36;1.20;99.90
16321;DHT22;8269;50.990;4.494;2024-01-15T03:46:02;1.20;99.90
16321;DHT22;8269;50.990;4.494;2024-01-15T03:48:28;1.20;99.90
16321;DHT22;8269;50.990;4.494;2024-01-15T03:50:53;1.20;99.90
16321;DHT22;8269;50.990;4.494;2024-01-15T03:53:19;1.20;99.90
16321;DHT22;8269;50.990;4.494;2024-01-15T03:55:45;1.10;99.90
16321;DHT22;8269;50.990;4.494;2024-01-15T03:58:10;1.20;99.90
16321;DHT22;8269;50.990;4.494;2024-01-15T04:00:37;1.10;99.90
16321;DHT22;8269;50.990;4.494;2024-01-15T04:03:02;1.10;99.90
16321;DHT22;8269;50.990;4.494;2024-01-15T04:05:28;1.10;99.90
16321;DHT22;8269;50.990;4.494;2024-01-15T04:07:54;1.10;99.90
16321;DHT22;8269;50.990;4.494;2024-01-15T04:10:19;1.10;99.90
16321;DHT22;8269;50.990;4.494;2024-01-15T04:12:45;1.10;99.90
16321;DHT22;8269;50.990;4.494;2024-01-15T04:15:13;1.20;99.90
16321;DHT22;8269;50.990;4.494;2024-01-15T04:17:39;1.10;99.90
16321;DHT22;8269;50.990;4.494;2024-01-15T04:20:05;1.10;99.90
16321;DHT22;8269;50.990;4.494;2024-01-15T04:22:33;1.10;99.90
16321;DHT22;8269;50.990;4.494;2024-01-15T04:24:58;1.10;99.90
16321;DHT22;8269;50.990;4.494;2024-01-15T04:27:24;1.10;99.90
16321;DHT22;8269;50.990;4.494;2024-01-15T04:29:50;1.00;99.90
16321;DHT22;8269;50.990;4.494;2024-01-15T04:32:15;0.90;99.90
16321;DHT22;8269;50.990;4.494;2024-01-15T04:34:41;1.00;99.90
16321;DHT22;8269;50.990;4.494;2024-01-15T04:37:07;1.00;99.90
16321;DHT22;8269;50.990;4.494;2024-01-15T04:39:32;1.00;99.90
16321;DHT22;8269;50.990;4.494;2024-01-15T04:41:58;1.00;99.90
16321;DHT22;8269;50.990;4.494;2024-01-15T04:44:23;0.90;99.90
16321;DHT22;8269;50.990;4.494;2024-01-15T04:46:49;0.90;99.90
16321;DHT22;8269;50.990;4.494;2024-01-15T04:49:15;0.80;99.90
16321;DHT22;8269;50.990;4.494;2024-01-15T04:51:40;0.80;99.90
16321;DHT22;8269;50.990;4.494;2024-01-15T04:54:06;0.70;99.90
16321;DHT22;8269;50.990;4.494;2024-01-15T04:56:31;0.70;99.90
16321;DHT22;8269;50.990;4.494;2024-01-15T04:58:57;0.60;99.90
16321;DHT22;8269;50.990;4.494;2024-01-15T05:01:23;0.70;99.90
16321;DHT22;8269;50.990;4.494;2024-01-15T05:03:48;0.60;99.90
16321;DHT22;8269;50.990;4.494;2024-01-15T05:06:15;0.60;99.90
16321;DHT22;8269;50.990;4.494;2024-01-15T05:08:41;0.60;99.90
16321;DHT22;8269;50.990;4.494;2024-01-15T05:11:06;0.60;99.90
16321;DHT22;8269;50.990;4.494;2024-01-15T05:13:32;0.50;99.90
16321;DHT22;8269;50.990;4.494;2024-01-15T05:15:57;0.50;99.90
16321;DHT22;8269;50.990;4.494;2024-01-15T05:18:23;0.50;99.90
16321;DHT22;8269;50.990;4.494;2024-01-15T05:20:49;0.50;99.90
16321;DHT22;8269;50.990;4.494;2024-01-15T05:23:14;0.50;99.90
16321;DHT22;8269;50.990;4.494;2024-01-15T05:25:40;0.50;99.90
16321;DHT22;8269;50.990;4.494;2024-01-15T05:28:06;0.40;99.90
16321;DHT22;8269;50.990;4.494;2024-01-15T05:30:31;0.40;99.90
16321;DHT22;8269;50.990;4.494;2024-01-15T05:32:57;0.40;99.90
16321;DHT22;8269;50.990;4.494;2024-01-15T05:35:23;0.40;99.90
16321;DHT22;8269;50.990;4.494;2024-01-15T05:37:49;0.50;99.90
16321;DHT22;8269;50.990;4.494;2024-01-15T05:40:14;0.40;99.90
16321;DHT22;8269;50.990;4.494;2024-01-15T05:42:44;0.50;99.90
16321;DHT22;8269;50.990;4.494;2024-01-15T05:45:10;0.50;99.90
16321;DHT22;8269;50.990;4.494;2024-01-15T05:47:35;0.50;99.90
16321;DHT22;8269;50.990;4.494;2024-01-15T05:50:01;0.40;99.90
16321;DHT22;8269;50.990;4.494;2024-01-15T05:52:27;0.40;99.90
16321;DHT22;8269;50.990;4.494;2024-01-15T05:54:53;0.40;99.90
16321;DHT22;8269;50.990;4.494;2024-01-15T05:57:19;0.40;99.90
16321;DHT22;8269;50.990;4.494;2024-01-15T05:59:45;0.30;99.90
16321;DHT22;8269;50.990;4.494;2024-01-15T06:02:11;0.40;99.90
16321;DHT22;8269;50.990;4.494;2024-01-15T06:04:37;0.40;99.90
16321;DHT22;8269;50.990;4.494;2024-01-15T06:07:02;0.40;99.90
16321;DHT22;8269;50.990;4.494;2024-01-15T06:09:28;0.40;99.90
16321;DHT22;8269;50.990;4.494;2024-01-15T06:11:54;0.40;99.90
16321;DHT22;8269;50.990;4.494;2024-01-15T06:14:20;0.40;99.90
16321;DHT22;8269;50.990;4.494;2024-01-15T06:16:46;0.40;99.90
16321;DHT22;8269;50.990;4.494;2024-01-15T06:19:11;0.40;99.90
16321;DHT22;8269;50.990;4.494;2024-01-15T06:21:37;0.40;99.90
16321;DHT22;8269;50.990;4.494;2024-01-15T06:24:03;0.40;99.90
16321;DHT22;8269;50.990;4.494;2024-01-15T06:26:29;0.40;99.90
16321;DHT22;8269;50.990;4.494;2024-01-15T06:28:55;0.40;99.90
16321;DHT22;8269;50.990;4.494;2024-01-15T06:31:21;0.30;99.90
16321;DHT22;8269;50.990;4.494;2024-01-15T06:33:46;0.30;99.90
16321;DHT22;8269;50.990;4.494;2024-01-15T06:36:14;0.30;99.90
16321;DHT22;8269;50.990;4.494;2024-01-15T06:38:39;0.30;99.90
16321;DHT22;8269;50.990;4.494;2024-01-15T06:41:05;0.40;99.90
16321;DHT22;8269;50.990;4.494;2024-01-15T06:43:31;0.30;99.90
16321;DHT22;8269;50.990;4.494;2024-01-15T06:45:57;0.30;99.90
16321;DHT22;8269;50.990;4.494;2024-01-15T06:48:22;0.30;99.90
16321;DHT22;8269;50.990;4.494;2024-01-15T06:50:48;0.40;99.90
16321;DHT22;8269;50.990;4.494;2024-01-15T06:53:14;0.30;99.90
16321;DHT22;8269;50.990;4.494;2024-01-15T06:55:39;0.30;99.90
16321;DHT22;8269;50.990;4.494;2024-01-15T06:58:05;0.30;99.90
16321;DHT22;8269;50.990;4.494;2024-01-15T07:00:31;0.30;99.90
16321;DHT22;8269;50.990;4.494;2024-01-15T07:02:58;0.30;99.90
16321;DHT22;8269;50.990;4.494;2024-01-15T07:05:23;0.20;99.90
16321;DHT22;8269;50.990;4.494;2024-01-15T07:07:49;0.30;99.90
16321;DHT22;8269;50.990;4.494;2024-01-15T07:10:15;0.20;99.90
16321;DHT22;8269;50.990;4.494;2024-01-15T07:12:44;0.20;99.90
16321;DHT22;8269;50.990;4.494;2024-01-15T07:15:10;0.20;99.90
16321;DHT22;8269;50.990;4.494;2024-01-15T07:17:37;0.10;99.90
16321;DHT22;8269;50.990;4.494;2024-01-15T07:20:07;0.10;99.90
16321;DHT22;8269;50.990;4.494;2024-01-15T07:22:36;0.20;99.90
16321;DHT22;8269;50.990;4.494;2024-01-15T07:25:02;0.20;99.90
16321;DHT22;8269;50.990;4.494;2024-01-15T07:27:27;0.20;99.90
16321;DHT22;8269;50.990;4.494;2024-01-15T07:29:53;0.20;99.90
16321;DHT22;8269;50.990;4.494;2024-01-15T07:32:19;0.30;99.90
16321;DHT22;8269;50.990;4.494;2024-01-15T07:34:46;0.30;99.90
16321;DHT22;8269;50.990;4.494;2024-01-15T07:37:11;0.30;99.90
16321;DHT22;8269;50.990;4.494;2024-01-15T07:39:37;0.50;99.90
16321;DHT22;8269;50.990;4.494;2024-01-15T07:42:03;0.40;99.90
16321;DHT22;8269;50.990;4.494;2024-01-15T07:44:29;0.40;99.90
16321;DHT22;8269;50.990;4.494;2024-01-15T07:46:55;0.50;99.90
16321;DHT22;8269;50.990;4.494;2024-01-15T07:49:20;0.50;99.90
16321;DHT22;8269;50.990;4.494;2024-01-15T07:51:46;0.50;99.90
16321;DHT22;8269;50.990;4.494;2024-01-15T07:54:12;0.70;99.90
16321;DHT22;8269;50.990;4.494;2024-01-15T07:56:54;0.60;99.90
16321;DHT22;8269;50.990;4.494;2024-01-15T07:59:20;0.60;99.90
16321;DHT22;8269;50.990;4.494;2024-01-15T08:01:45;0.70;99.90
16321;DHT22;8269;50.990;4.494;2024-01-15T08:04:12;0.70;99.90
16321;DHT22;8269;50.990;4.494;2024-01-15T08:06:38;0.70;99.90
16321;DHT22;8269;50.990;4.494;2024-01-15T08:09:04;0.70;99.90
16321;DHT22;8269;50.990;4.494;2024-01-15T08:11:30;0.80;99.90
16321;DHT22;8269;50.990;4.494;2024-01-15T08:13:56;0.80;99.90
16321;DHT22;8269;50.990;4.494;2024-01-15T08:16:22;0.90;99.90
16321;DHT22;8269;50.990;4.494;2024-01-15T08:18:49;0.80;99.90
16321;DHT22;8269;50.990;4.494;2024-01-15T08:21:15;0.90;99.90
16321;DHT22;8269;50.990;4.494;2024-01-15T08:23:41;0.90;99.90
16321;DHT22;8269;50.990;4.494;2024-01-15T08:26:07;1.00;99.90
16321;DHT22;8269;50.990;4.494;2024-01-15T08:28:34;1.00;99.90
16321;DHT22;8269;50.990;4.494;2024-01-15T08:31:00;1.00;99.90
16321;DHT22;8269;50.990;4.494;2024-01-15T08:33:25;1.00;99.90
16321;DHT22;8269;50.990;4.494;2024-01-15T08:35:51;1.10;99.90
16321;DHT22;8269;50.990;4.494;2024-01-15T08:38:17;1.10;99.90
16321;DHT22;8269;50.990;4.494;2024-01-15T08:40:42;1.10;99.90
16321;DHT22;8269;50.990;4.494;2024-01-15T08:43:08;1.10;99.90
16321;DHT22;8269;50.990;4.494;2024-01-15T08:45:34;1.20;99.90
16321;DHT22;8269;50.990;4.494;2024-01-15T08:47:59;1.20;99.90
16321;DHT22;8269;50.990;4.494;2024-01-15T08:50:26;1.30;99.90
16321;DHT22;8269;50.990;4.494;2024-01-15T08:52:52;1.20;99.90
16321;DHT22;8269;50.990;4.494;2024-01-15T08:55:17;1.30;99.90
16321;DHT22;8269;50.990;4.494;2024-01-15T08:57:43;1.30;99.90
16321;DHT22;8269;50.990;4.494;2024-01-15T09:00:10;1.30;99.90
16321;DHT22;8269;50.990;4.494;2024-01-15T09:02:35;1.30;99.90
16321;DHT22;8269;50.990;4.494;2024-01-15T09:05:01;1.30;99.90
16321;DHT22;8269;50.990;4.494;2024-01-15T09:07:27;1.40;99.90
16321;DHT22;8269;50.990;4.494;2024-01-15T09:09:53;1.40;99.90
16321;DHT22;8269;50.990;4.494;2024-01-15T09:12:19;1.40;99.90
16321;DHT22;8269;50.990;4.494;2024-01-15T09:14:46;1.40;99.90
16321;DHT22;8269;50.990;4.494;2024-01-15T09:17:12;1.50;99.90
16321;DHT22;8269;50.990;4.494;2024-01-15T09:19:38;1.40;99.90
16321;DHT22;8269;50.990;4.494;2024-01-15T09:22:08;1.40;99.90
16321;DHT22;8269;50.990;4.494;2024-01-15T09:24:33;1.40;99.90
16321;DHT22;8269;50.990;4.494;2024-01-15T09:26:59;1.40;99.90
16321;DHT22;8269;50.990;4.494;2024-01-15T09:29:25;1.40;99.90
16321;DHT22;8269;50.990;4.494;2024-01-15T09:31:51;1.40;99.90
16321;DHT22;8269;50.990;4.494;2024-01-15T09:34:17;1.50;99.90
16321;DHT22;8269;50.990;4.494;2024-01-15T09:36:43;1.50;99.90
16321;DHT22;8269;50.990;4.494;2024-01-15T09:39:09;1.50;99.90
16321;DHT22;8269;50.990;4.494;2024-01-15T09:41:37;1.60;99.90
16321;DHT22;8269;50.990;4.494;2024-01-15T09:44:03;1.60;99.90
16321;DHT22;8269;50.990;4.494;2024-01-15T09:46:33;1.60;99.90
16321;DHT22;8269;50.990;4.494;2024-01-15T09:49:00;1.60;99.90
16321;DHT22;8269;50.990;4.494;2024-01-15T09:51:31;1.70;99.90
16321;DHT22;8269;50.990;4.494;2024-01-15T09:53:57;1.70;99.90
16321;DHT22;8269;50.990;4.494;2024-01-15T09:56:24;1.70;99.90
16321;DHT22;8269;50.990;4.494;2024-01-15T09:58:50;1.80;99.90
16321;DHT22;8269;50.990;4.494;2024-01-15T10:01:20;1.90;99.90
16321;DHT22;8269;50.990;4.494;2024-01-15T10:03:46;1.90;99.90
16321;DHT22;8269;50.990;4.494;2024-01-15T10:06:16;2.00;99.90
16321;DHT22;8269;50.990;4.494;2024-01-15T10:08:49;2.00;99.90
16321;DHT22;8269;50.990;4.494;2024-01-15T10:11:15;2.10;99.90
16321;DHT22;8269;50.990;4.494;2024-01-15T10:13:43;2.10;99.90
16321;DHT22;8269;50.990;4.494;2024-01-15T10:16:09;2.20;99.90
16321;DHT22;8269;50.990;4.494;2024-01-15T10:18:35;2.30;99.90
16321;DHT22;8269;50.990;4.494;2024-01-15T10:21:03;2.30;99.90
16321;DHT22;8269;50.990;4.494;2024-01-15T10:23:31;2.20;99.90
16321;DHT22;8269;50.990;4.494;2024-01-15T10:25:57;2.30;99.90
16321;DHT22;8269;50.990;4.494;2024-01-15T10:28:26;2.30;99.90
16321;DHT22;8269;50.990;4.494;2024-01-15T10:30:55;2.30;99.90
16321;DHT22;8269;50.990;4.494;2024-01-15T10:33:23;2.30;99.90
16321;DHT22;8269;50.990;4.494;2024-01-15T10:35:56;2.40;99.90
16321;DHT22;8269;50.990;4.494;2024-01-15T10:38:23;2.40;99.90
16321;DHT22;8269;50.990;4.494;2024-01-15T10:40:55;2.50;99.90
16321;DHT22;8269;50.990;4.494;2024-01-15T10:43:22;2.50;99.90
16321;DHT22;8269;50.990;4.494;2024-01-15T10:45:50;2.60;99.90
16321;DHT22;8269;50.990;4.494;2024-01-15T10:48:17;2.60;99.90
16321;DHT22;8269;50.990;4.494;2024-01-15T10:50:44;2.70;99.90
16321;DHT22;8269;50.990;4.494;2024-01-15T10:53:12;2.80;99.90
16321;DHT22;8269;50.990;4.494;2024-01-15T10:55:38;2.90;99.90
16321;DHT22;8269;50.990;4.494;2024-01-15T10:58:05;3.10;99.90
16321;DHT22;8269;50.990;4.494;2024-01-15T11:00:36;3.30;99.90
16321;DHT22;8269;50.990;4.494;2024-01-15T11:03:07;3.40;99.90
16321;DHT22;8269;50.990;4.494;2024-01-15T11:05:36;3.50;99.90
16321;DHT22;8269;50.990;4.494;2024-01-15T11:08:02;3.50;99.90
16321;DHT22;8269;50.990;4.494;2024-01-15T11:13:39;3.60;99.90
16321;DHT22;8269;50.990;4.494;2024-01-15T11:16:10;3.50;99.90
16321;DHT22;8269;50.990;4.494;2024-01-15T11:19:01;3.60;99.90
16321;DHT22;8269;50.990;4.494;2024-01-15T11:21:28;3.50;99.90
16321;DHT22;8269;50.990;4.494;2024-01-15T11:24:01;3.60;99.90
16321;DHT22;8269;50.990;4.494;2024-01-15T11:28:56;3.60;99.90
16321;DHT22;8269;50.990;4.494;2024-01-15T11:31:28;3.60;99.90
16321;DHT22;8269;50.990;4.494;2024-01-15T11:33:54;3.60;99.90
16321;DHT22;8269;50.990;4.494;2024-01-15T11:36:34;3.60;99.90
16321;DHT22;8269;50.990;4.494;2024-01-15T11:41:58;3.60;99.90
16321;DHT22;8269;50.990;4.494;2024-01-15T11:44:24;3.60;99.90
16321;DHT22;8269;50.990;4.494;2024-01-15T11:47:04;3.60;99.90
16321;DHT22;8269;50.990;4.494;2024-01-15T11:52:17;3.60;99.90
16321;DHT22;8269;50.990;4.494;2024-01-15T11:57:46;3.50;99.90
16321;DHT22;8269;50.990;4.494;2024-01-15T12:00:15;3.40;99.90
16321;DHT22;8269;50.990;4.494;2024-01-15T12:02:45;3.40;99.90
16321;DHT22;8269;50.990;4.494;2024-01-15T12:05:12;3.40;99.90
16321;DHT22;8269;50.990;4.494;2024-01-15T12:07:39;3.40;99.90
16321;DHT22;8269;50.990;4.494;2024-01-15T12:10:12;3.60;99.90
16321;DHT22;8269;50.990;4.494;2024-01-15T12:15:22;3.70;99.90
16321;DHT22;8269;50.990;4.494;2024-01-15T12:17:47;3.70;99.90
16321;DHT22;8269;50.990;4.494;2024-01-15T12:20:14;3.80;99.90
16321;DHT22;8269;50.990;4.494;2024-01-15T12:22:41;3.80;99.90
16321;DHT22;8269;50.990;4.494;2024-01-15T12:25:07;3.90;99.90
16321;DHT22;8269;50.990;4.494;2024-01-15T12:27:33;4.00;99.90
16321;DHT22;8269;50.990;4.494;2024-01-15T12:29:58;4.20;99.90
16321;DHT22;8269;50.990;4.494;2024-01-15T12:32:24;4.20;99.90
16321;DHT22;8269;50.990;4.494;2024-01-15T12:34:51;4.00;99.90
16321;DHT22;8269;50.990;4.494;2024-01-15T12:37:20;4.00;99.90
16321;DHT22;8269;50.990;4.494;2024-01-15T12:39:46;3.90;99.90
16321;DHT22;8269;50.990;4.494;2024-01-15T12:42:14;4.00;99.90
16321;DHT22;8269;50.990;4.494;2024-01-15T12:44:39;3.80;99.90
16321;DHT22;8269;50.990;4.494;2024-01-15T12:47:06;3.10;99.90
16321;DHT22;8269;50.990;4.494;2024-01-15T12:49:32;2.80;99.90
16321;DHT22;8269;50.990;4.494;2024-01-15T12:51:58;2.70;99.90
16321;DHT22;8269;50.990;4.494;2024-01-15T12:54:24;2.70;99.90
16321;DHT22;8269;50.990;4.494;2024-01-15T12:56:51;2.90;99.90
16321;DHT22;8269;50.990;4.494;2024-01-15T12:59:18;2.90;99.90
16321;DHT22;8269;50.990;4.494;2024-01-15T13:01:44;2.40;99.90
16321;DHT22;8269;50.990;4.494;2024-01-15T13:04:10;1.80;99.90
16321;DHT22;8269;50.990;4.494;2024-01-15T13:06:36;1.60;99.90
16321;DHT22;8269;50.990;4.494;2024-01-15T13:09:03;1.30;99.90
16321;DHT22;8269;50.990;4.494;2024-01-15T13:11:31;1.20;99.90
16321;DHT22;8269;50.990;4.494;2024-01-15T13:13:57;1.10;99.90
16321;DHT22;8269;50.990;4.494;2024-01-15T13:16:23;1.10;99.90
16321;DHT22;8269;50.990;4.494;2024-01-15T13:18:48;1.10;99.90
16321;DHT22;8269;50.990;4.494;2024-01-15T13:21:15;1.10;99.90
16321;DHT22;8269;50.990;4.494;2024-01-15T13:23:41;1.10;99.90
16321;DHT22;8269;50.990;4.494;2024-01-15T13:26:06;1.10;99.90
16321;DHT22;8269;50.990;4.494;2024-01-15T13:28:33;1.20;99.90
16321;DHT22;8269;50.990;4.494;2024-01-15T13:31:00;1.30;99.90
16321;DHT22;8269;50.990;4.494;2024-01-15T13:33:26;1.30;99.90
16321;DHT22;8269;50.990;4.494;2024-01-15T13:35:51;1.20;99.90
16321;DHT22;8269;50.990;4.494;2024-01-15T13:38:17;1.10;99.90
16321;DHT22;8269;50.990;4.494;2024-01-15T13:40:43;1.00;99.90
16321;DHT22;8269;50.990;4.494;2024-01-15T13:43:11;0.90;99.90
16321;DHT22;8269;50.990;4.494;2024-01-15T13:45:38;0.80;99.90
16321;DHT22;8269;50.990;4.494;2024-01-15T13:48:04;0.80;99.90
16321;DHT22;8269;50.990;4.494;2024-01-15T13:50:34;0.80;99.90
16321;DHT22;8269;50.990;4.494;2024-01-15T13:53:01;0.80;99.90
16321;DHT22;8269;50.990;4.494;2024-01-15T13:55:27;0.80;99.90
16321;DHT22;8269;50.990;4.494;2024-01-15T13:57:54;0.80;99.90
16321;DHT22;8269;50.990;4.494;2024-01-15T14:00:20;0.80;99.90
16321;DHT22;8269;50.990;4.494;2024-01-15T14:02:46;0.90;99.90
16321;DHT22;8269;50.990;4.494;2024-01-15T14:05:12;1.00;99.90
16321;DHT22;8269;50.990;4.494;2024-01-15T14:07:41;1.20;99.90
16321;DHT22;8269;50.990;4.494;2024-01-15T14:10:09;1.30;99.90
16321;DHT22;8269;50.990;4.494;2024-01-15T14:12:35;1.40;99.90
16321;DHT22;8269;50.990;4.494;2024-01-15T14:15:05;1.40;99.90
16321;DHT22;8269;50.990;4.494;2024-01-15T14:17:31;1.50;99.90
16321;DHT22;8269;50.990;4.494;2024-01-15T14:19:57;1.40;99.90
16321;DHT22;8269;50.990;4.494;2024-01-15T14:22:22;1.30;99.90
16321;DHT22;8269;50.990;4.494;2024-01-15T14:24:48;1.20;99.90
16321;DHT22;8269;50.990;4.494;2024-01-15T14:27:14;1.20;99.90
16321;DHT22;8269;50.990;4.494;2024-01-15T14:29:40;1.10;99.90
16321;DHT22;8269;50.990;4.494;2024-01-15T14:32:06;1.10;99.90
16321;DHT22;8269;50.990;4.494;2024-01-15T14:34:32;1.10;99.90
16321;DHT22;8269;50.990;4.494;2024-01-15T14:36:57;1.00;99.90
16321;DHT22;8269;50.990;4.494;2024-01-15T14:39:23;1.10;99.90
16321;DHT22;8269;50.990;4.494;2024-01-15T14:41:49;1.10;99.90
16321;DHT22;8269;50.990;4.494;2024-01-15T14:44:15;1.10;99.90
16321;DHT22;8269;50.990;4.494;2024-01-15T14:46:41;1.10;99.90
16321;DHT22;8269;50.990;4.494;2024-01-15T14:49:07;1.10;99.90
16321;DHT22;8269;50.990;4.494;2024-01-15T14:51:32;1.10;99.90
16321;DHT22;8269;50.990;4.494;2024-01-15T14:53:58;1.20;99.90
16321;DHT22;8269;50.990;4.494;2024-01-15T14:56:24;1.20;99.90
16321;DHT22;8269;50.990;4.494;2024-01-15T14:58:49;1.10;99.90
16321;DHT22;8269;50.990;4.494;2024-01-15T15:01:15;1.20;99.90
16321;DHT22;8269;50.990;4.494;2024-01-15T15:03:41;1.20;99.90
16321;DHT22;8269;50.990;4.494;2024-01-15T15:06:07;1.20;99.90
16321;DHT22;8269;50.990;4.494;2024-01-15T15:08:33;1.30;99.90
16321;DHT22;8269;50.990;4.494;2024-01-15T15:11:00;1.20;99.90
16321;DHT22;8269;50.990;4.494;2024-01-15T15:13:26;1.20;99.90
16321;DHT22;8269;50.990;4.494;2024-01-15T15:15:52;1.20;99.90
16321;DHT22;8269;50.990;4.494;2024-01-15T15:18:20;1.20;99.90
16321;DHT22;8269;50.990;4.494;2024-01-15T15:20:49;1.20;99.90
16321;DHT22;8269;50.990;4.494;2024-01-15T15:23:16;1.20;99.90
16321;DHT22;8269;50.990;4.494;2024-01-15T15:25:42;1.10;99.90
16321;DHT22;8269;50.990;4.494;2024-01-15T15:28:09;1.10;99.90
16321;DHT22;8269;50.990;4.494;2024-01-15T15:30:37;1.10;99.90
16321;DHT22;8269;50.990;4.494;2024-01-15T15:33:03;1.10;99.90
16321;DHT22;8269;50.990;4.494;2024-01-15T15:35:28;1.10;99.90
16321;DHT22;8269;50.990;4.494;2024-01-15T15:37:54;1.20;99.90
16321;DHT22;8269;50.990;4.494;2024-01-15T15:40:20;1.20;99.90
16321;DHT22;8269;50.990;4.494;2024-01-15T15:42:46;1.30;99.90
16321;DHT22;8269;50.990;4.494;2024-01-15T15:45:12;1.40;99.90
16321;DHT22;8269;50.990;4.494;2024-01-15T15:47:39;1.30;99.90
16321;DHT22;8269;50.990;4.494;2024-01-15T15:50:06;1.30;99.90
16321;DHT22;8269;50.990;4.494;2024-01-15T15:52:31;1.30;99.90
16321;DHT22;8269;50.990;4.494;2024-01-15T15:54:57;1.20;99.90
16321;DHT22;8269;50.990;4.494;2024-01-15T15:57:23;1.20;99.90
16321;DHT22;8269;50.990;4.494;2024-01-15T15:59:49;1.10;99.90
16321;DHT22;8269;50.990;4.494;2024-01-15T16:02:15;1.10;99.90
16321;DHT22;8269;50.990;4.494;2024-01-15T16:04:41;1.10;99.90
16321;DHT22;8269;50.990;4.494;2024-01-15T16:07:06;1.10;99.90
16321;DHT22;8269;50.990;4.494;2024-01-15T16:09:33;1.10;99.90
16321;DHT22;8269;50.990;4.494;2024-01-15T16:11:59;1.10;99.90
16321;DHT22;8269;50.990;4.494;2024-01-15T16:14:25;1.10;99.90
16321;DHT22;8269;50.990;4.494;2024-01-15T16:16:50;1.20;99.90
16321;DHT22;8269;50.990;4.494;2024-01-15T16:19:16;1.20;99.90
16321;DHT22;8269;50.990;4.494;2024-01-15T16:21:42;1.30;99.90